GLO1748 SBBR-SBFL
Flight info
| Callsign | GLO1748 |
|---|---|
| Flight time | 1h 44m |
| Altitude | 32000 |
| Route | KUKOL UZ5 IMTBI DCT EDREX |
| Aircraft | B738/M-SDE2E3FGHIRWXY/LB1 |
Departure
| Time | 2026-04-28 10:52 |
|---|---|
| Airport | Presidente Juscelino Kubitschek International Airport (SBBR) |
Arrival
| Time | 2026-04-28 12:37 |
|---|---|
| Airport | Hercílio Luz International Airport (SBFL) |
| Time | Latitude | Longitude | Altitude | Speed | Heading |
|---|---|---|---|---|---|
| 2026-04-28 10:21 | -15.87128 | -47.91906 | 3464 ft | 0 kts | 176° |
| 2026-04-28 10:39 | -15.87127 | -47.91906 | 3463 ft | 2 kts | 176° |
| 2026-04-28 10:39 | -15.87103 | -47.91909 | 3464 ft | 4 kts | 162° |
| 2026-04-28 10:40 | -15.87081 | -47.91921 | 3464 ft | 4 kts | 129° |
| 2026-04-28 10:40 | -15.87072 | -47.91940 | 3464 ft | 1 kts | 88° |
| 2026-04-28 10:43 | -15.87072 | -47.91933 | 3464 ft | 4 kts | 88° |
| 2026-04-28 10:43 | -15.87070 | -47.91883 | 3464 ft | 10 kts | 86° |
| 2026-04-28 10:43 | -15.87065 | -47.91791 | 3464 ft | 15 kts | 86° |
| 2026-04-28 10:44 | -15.87081 | -47.91691 | 3464 ft | 15 kts | 149° |
| 2026-04-28 10:44 | -15.87181 | -47.91678 | 3463 ft | 14 kts | 176° |
| 2026-04-28 10:44 | -15.87280 | -47.91671 | 3463 ft | 14 kts | 176° |
| 2026-04-28 10:44 | -15.87378 | -47.91664 | 3463 ft | 14 kts | 176° |
| 2026-04-28 10:45 | -15.87484 | -47.91658 | 3462 ft | 16 kts | 176° |
| 2026-04-28 10:45 | -15.87598 | -47.91650 | 3462 ft | 18 kts | 176° |
| 2026-04-28 10:45 | -15.87719 | -47.91657 | 3459 ft | 18 kts | 218° |
| 2026-04-28 10:45 | -15.87743 | -47.91777 | 3462 ft | 17 kts | 266° |
| 2026-04-28 10:46 | -15.87750 | -47.91897 | 3465 ft | 17 kts | 266° |
| 2026-04-28 10:46 | -15.87758 | -47.92020 | 3468 ft | 17 kts | 266° |
| 2026-04-28 10:46 | -15.87767 | -47.92149 | 3471 ft | 18 kts | 266° |
| 2026-04-28 10:46 | -15.87775 | -47.92283 | 3473 ft | 18 kts | 266° |
| 2026-04-28 10:47 | -15.87783 | -47.92413 | 3473 ft | 18 kts | 266° |
| 2026-04-28 10:47 | -15.87792 | -47.92538 | 3476 ft | 18 kts | 266° |
| 2026-04-28 10:47 | -15.87799 | -47.92668 | 3474 ft | 18 kts | 265° |
| 2026-04-28 10:47 | -15.87808 | -47.92799 | 3477 ft | 18 kts | 266° |
| 2026-04-28 10:48 | -15.87816 | -47.92925 | 3481 ft | 17 kts | 266° |
| 2026-04-28 10:48 | -15.87825 | -47.93055 | 3482 ft | 19 kts | 266° |
| 2026-04-28 10:48 | -15.87833 | -47.93188 | 3488 ft | 18 kts | 266° |
| 2026-04-28 10:48 | -15.87842 | -47.93316 | 3494 ft | 17 kts | 265° |
| 2026-04-28 10:49 | -15.87850 | -47.93441 | 3497 ft | 18 kts | 266° |
| 2026-04-28 10:49 | -15.87858 | -47.93573 | 3500 ft | 18 kts | 266° |
| 2026-04-28 10:49 | -15.87866 | -47.93703 | 3505 ft | 18 kts | 266° |
| 2026-04-28 10:49 | -15.87875 | -47.93828 | 3510 ft | 17 kts | 266° |
| 2026-04-28 10:50 | -15.87886 | -47.93952 | 3516 ft | 18 kts | 252° |
| 2026-04-28 10:50 | -15.87960 | -47.93994 | 3509 ft | 0 kts | 180° |
| 2026-04-28 10:50 | -15.87968 | -47.93994 | 3509 ft | 4 kts | 179° |
| 2026-04-28 10:50 | -15.88027 | -47.93991 | 3510 ft | 9 kts | 174° |
| 2026-04-28 10:51 | -15.88064 | -47.93961 | 3514 ft | 5 kts | 90° |
| 2026-04-28 10:51 | -15.88064 | -47.93949 | 3516 ft | 12 kts | 88° |
| 2026-04-28 10:51 | -15.88041 | -47.93603 | 3503 ft | 83 kts | 86° |
| 2026-04-28 10:51 | -15.87988 | -47.92789 | 3479 ft | 143 kts | 85° |
| 2026-04-28 10:52 | -15.87918 | -47.91584 | 3552 ft | 185 kts | 87° |
| 2026-04-28 10:52 | -15.87841 | -47.90281 | 4362 ft | 176 kts | 89° |
| 2026-04-28 10:52 | -15.88145 | -47.89022 | 4845 ft | 192 kts | 126° |
| 2026-04-28 10:52 | -15.89299 | -47.88230 | 5053 ft | 214 kts | 168° |
| 2026-04-28 10:53 | -15.90848 | -47.88075 | 5296 ft | 233 kts | 177° |
| 2026-04-28 10:53 | -15.92461 | -47.87925 | 5758 ft | 241 kts | 172° |
| 2026-04-28 10:53 | -15.94140 | -47.87618 | 6233 ft | 247 kts | 168° |
| 2026-04-28 10:53 | -15.95881 | -47.87228 | 6460 ft | 266 kts | 166° |
| 2026-04-28 10:54 | -15.97738 | -47.86773 | 6894 ft | 280 kts | 165° |
| 2026-04-28 10:54 | -15.99649 | -47.86290 | 7611 ft | 284 kts | 164° |
| 2026-04-28 10:54 | -16.01575 | -47.85799 | 8374 ft | 286 kts | 164° |
| 2026-04-28 10:54 | -16.03558 | -47.85544 | 8843 ft | 291 kts | 184° |
| 2026-04-28 10:55 | -16.05458 | -47.86263 | 9168 ft | 299 kts | 213° |
| 2026-04-28 10:55 | -16.06829 | -47.87902 | 9582 ft | 307 kts | 243° |
| 2026-04-28 10:55 | -16.07419 | -47.90018 | 10404 ft | 306 kts | 263° |
| 2026-04-28 10:55 | -16.07536 | -47.92276 | 10765 ft | 323 kts | 268° |
| 2026-04-28 10:56 | -16.07632 | -47.94692 | 10934 ft | 344 kts | 266° |
| 2026-04-28 10:56 | -16.07792 | -47.97242 | 11174 ft | 361 kts | 263° |
| 2026-04-28 10:56 | -16.08467 | -47.99767 | 11644 ft | 366 kts | 243° |
| 2026-04-28 10:56 | -16.09749 | -48.02053 | 12346 ft | 366 kts | 237° |
| 2026-04-28 10:57 | -16.11074 | -48.04330 | 12993 ft | 369 kts | 239° |
| 2026-04-28 10:57 | -16.12330 | -48.06674 | 13539 ft | 374 kts | 241° |
| 2026-04-28 10:57 | -16.13559 | -48.09036 | 14071 ft | 379 kts | 241° |
| 2026-04-28 10:57 | -16.14820 | -48.11455 | 14631 ft | 382 kts | 241° |
| 2026-04-28 10:58 | -16.16097 | -48.13897 | 15165 ft | 386 kts | 241° |
| 2026-04-28 10:58 | -16.17388 | -48.16353 | 15690 ft | 389 kts | 241° |
| 2026-04-28 10:58 | -16.18695 | -48.18839 | 16162 ft | 393 kts | 241° |
| 2026-04-28 10:58 | -16.20013 | -48.21348 | 16661 ft | 397 kts | 241° |
| 2026-04-28 10:59 | -16.21342 | -48.23878 | 17126 ft | 400 kts | 242° |
| 2026-04-28 10:59 | -16.22687 | -48.26435 | 17591 ft | 404 kts | 240° |
| 2026-04-28 10:59 | -16.24368 | -48.28772 | 18007 ft | 407 kts | 222° |
| 2026-04-28 10:59 | -16.26768 | -48.30329 | 18442 ft | 410 kts | 201° |
| 2026-04-28 11:00 | -16.29478 | -48.31255 | 18931 ft | 411 kts | 197° |
| 2026-04-28 11:00 | -16.32219 | -48.32142 | 19318 ft | 415 kts | 197° |
| 2026-04-28 11:00 | -16.34984 | -48.33059 | 19697 ft | 418 kts | 198° |
| 2026-04-28 11:00 | -16.37758 | -48.33999 | 20088 ft | 421 kts | 198° |
| 2026-04-28 11:01 | -16.40551 | -48.34957 | 20476 ft | 424 kts | 198° |
| 2026-04-28 11:01 | -16.43354 | -48.35925 | 20875 ft | 426 kts | 199° |
| 2026-04-28 11:01 | -16.46171 | -48.36901 | 21241 ft | 428 kts | 199° |
| 2026-04-28 11:01 | -16.49006 | -48.37882 | 21627 ft | 430 kts | 199° |
| 2026-04-28 11:02 | -16.51861 | -48.38869 | 21967 ft | 433 kts | 199° |
| 2026-04-28 11:02 | -16.54730 | -48.39861 | 22298 ft | 436 kts | 199° |
| 2026-04-28 11:02 | -16.57580 | -48.40847 | 22632 ft | 438 kts | 199° |
| 2026-04-28 11:02 | -16.60481 | -48.41851 | 22966 ft | 440 kts | 199° |
| 2026-04-28 11:03 | -16.63396 | -48.42859 | 23281 ft | 442 kts | 199° |
| 2026-04-28 11:03 | -16.66320 | -48.43871 | 23604 ft | 444 kts | 199° |
| 2026-04-28 11:03 | -16.69274 | -48.44852 | 23904 ft | 447 kts | 195° |
| 2026-04-28 11:03 | -16.72357 | -48.45379 | 24157 ft | 451 kts | 186° |
| 2026-04-28 11:04 | -16.75493 | -48.45621 | 24464 ft | 453 kts | 184° |
| 2026-04-28 11:04 | -16.78654 | -48.45802 | 24750 ft | 455 kts | 184° |
| 2026-04-28 11:04 | -16.81827 | -48.45983 | 25016 ft | 457 kts | 184° |
| 2026-04-28 11:04 | -16.85009 | -48.46188 | 25292 ft | 459 kts | 185° |
| 2026-04-28 11:05 | -16.88197 | -48.46420 | 25560 ft | 461 kts | 185° |
| 2026-04-28 11:05 | -16.91412 | -48.46672 | 25817 ft | 463 kts | 185° |
| 2026-04-28 11:05 | -16.94625 | -48.46937 | 26082 ft | 465 kts | 186° |
| 2026-04-28 11:05 | -16.97858 | -48.47210 | 26345 ft | 466 kts | 186° |
| 2026-04-28 11:06 | -17.01100 | -48.47485 | 26584 ft | 468 kts | 186° |
| 2026-04-28 11:06 | -17.04356 | -48.47761 | 26823 ft | 470 kts | 186° |
| 2026-04-28 11:06 | -17.07577 | -48.48034 | 27058 ft | 472 kts | 186° |
| 2026-04-28 11:06 | -17.10863 | -48.48312 | 27317 ft | 473 kts | 186° |
| 2026-04-28 11:07 | -17.14154 | -48.48589 | 27563 ft | 475 kts | 186° |
| 2026-04-28 11:07 | -17.17452 | -48.48866 | 27801 ft | 476 kts | 186° |
| 2026-04-28 11:07 | -17.20753 | -48.49144 | 28019 ft | 478 kts | 186° |
| 2026-04-28 11:07 | -17.24078 | -48.49423 | 28218 ft | 479 kts | 186° |
| 2026-04-28 11:08 | -17.27411 | -48.49704 | 28414 ft | 481 kts | 186° |
| 2026-04-28 11:08 | -17.30758 | -48.49985 | 28635 ft | 483 kts | 186° |
| 2026-04-28 11:08 | -17.34109 | -48.50267 | 28843 ft | 484 kts | 186° |
| 2026-04-28 11:08 | -17.37469 | -48.50550 | 29096 ft | 484 kts | 186° |
| 2026-04-28 11:09 | -17.40833 | -48.50833 | 29382 ft | 484 kts | 186° |
| 2026-04-28 11:09 | -17.43052 | -48.51020 | 29596 ft | 483 kts | 186° |
| 2026-04-28 11:09 | -17.47478 | -48.51394 | 30023 ft | 481 kts | 186° |
| 2026-04-28 11:09 | -17.49719 | -48.51583 | 30208 ft | 481 kts | 186° |
| 2026-04-28 11:10 | -17.53058 | -48.51866 | 30498 ft | 480 kts | 187° |
| 2026-04-28 11:10 | -17.57465 | -48.52238 | 30935 ft | 478 kts | 187° |
| 2026-04-28 11:10 | -17.60773 | -48.52517 | 31299 ft | 475 kts | 187° |
| 2026-04-28 11:10 | -17.62994 | -48.52705 | 31530 ft | 474 kts | 187° |
| 2026-04-28 11:11 | -17.66286 | -48.52984 | 31826 ft | 474 kts | 187° |
| 2026-04-28 11:11 | -17.69568 | -48.53261 | 32134 ft | 473 kts | 187° |
| 2026-04-28 11:11 | -17.72865 | -48.53542 | 32131 ft | 476 kts | 187° |
| 2026-04-28 11:12 | -17.79459 | -48.54127 | 32138 ft | 473 kts | 187° |
| 2026-04-28 11:12 | -17.85939 | -48.54708 | 32152 ft | 470 kts | 187° |
| 2026-04-28 11:13 | -17.92449 | -48.55291 | 32148 ft | 469 kts | 187° |
| 2026-04-28 11:13 | -17.98993 | -48.55874 | 32148 ft | 469 kts | 187° |
| 2026-04-28 11:14 | -18.05453 | -48.56451 | 32152 ft | 469 kts | 187° |
| 2026-04-28 11:14 | -18.11957 | -48.57032 | 32149 ft | 469 kts | 187° |
| 2026-04-28 11:15 | -18.18467 | -48.57613 | 32147 ft | 469 kts | 187° |
| 2026-04-28 11:15 | -18.24981 | -48.58196 | 32152 ft | 470 kts | 187° |
| 2026-04-28 11:16 | -18.31507 | -48.58781 | 32159 ft | 470 kts | 187° |
| 2026-04-28 11:16 | -18.37990 | -48.59375 | 32175 ft | 471 kts | 187° |
| 2026-04-28 11:17 | -18.44520 | -48.59979 | 32174 ft | 471 kts | 188° |
| 2026-04-28 11:17 | -18.51058 | -48.60584 | 32180 ft | 472 kts | 188° |
| 2026-04-28 11:18 | -18.57607 | -48.61187 | 32178 ft | 473 kts | 187° |
| 2026-04-28 11:18 | -18.64159 | -48.61791 | 32175 ft | 473 kts | 187° |
| 2026-04-28 11:19 | -18.70719 | -48.62394 | 32186 ft | 473 kts | 188° |
| 2026-04-28 11:19 | -18.77274 | -48.62988 | 32186 ft | 473 kts | 188° |
| 2026-04-28 11:20 | -18.83825 | -48.63581 | 32184 ft | 473 kts | 188° |
| 2026-04-28 11:20 | -18.90377 | -48.64176 | 32185 ft | 472 kts | 188° |
| 2026-04-28 11:21 | -18.96931 | -48.64772 | 32175 ft | 472 kts | 188° |
| 2026-04-28 11:21 | -19.03447 | -48.65365 | 32177 ft | 473 kts | 188° |
| 2026-04-28 11:22 | -19.09992 | -48.65961 | 32179 ft | 472 kts | 188° |
| 2026-04-28 11:22 | -19.16548 | -48.66558 | 32162 ft | 472 kts | 188° |
| 2026-04-28 11:23 | -19.23088 | -48.67201 | 32167 ft | 472 kts | 188° |
| 2026-04-28 11:23 | -19.29630 | -48.67888 | 32163 ft | 472 kts | 189° |
| 2026-04-28 11:24 | -19.36164 | -48.68573 | 32164 ft | 472 kts | 189° |
| 2026-04-28 11:24 | -19.42700 | -48.69251 | 32155 ft | 472 kts | 189° |
| 2026-04-28 11:25 | -19.49232 | -48.69926 | 32149 ft | 472 kts | 189° |
| 2026-04-28 11:25 | -19.55721 | -48.70596 | 32146 ft | 471 kts | 189° |
| 2026-04-28 11:26 | -19.62252 | -48.71272 | 32147 ft | 471 kts | 189° |
| 2026-04-28 11:26 | -19.68780 | -48.71948 | 32149 ft | 471 kts | 189° |
| 2026-04-28 11:27 | -19.75314 | -48.72626 | 32141 ft | 471 kts | 189° |
| 2026-04-28 11:27 | -19.81847 | -48.73304 | 32135 ft | 472 kts | 189° |
| 2026-04-28 11:28 | -19.88373 | -48.73982 | 32118 ft | 472 kts | 189° |
| 2026-04-28 11:28 | -19.94914 | -48.74661 | 32116 ft | 471 kts | 189° |
| 2026-04-28 11:29 | -20.01431 | -48.75340 | 32122 ft | 471 kts | 189° |
| 2026-04-28 11:29 | -20.07919 | -48.76015 | 32130 ft | 471 kts | 189° |
| 2026-04-28 11:30 | -20.14446 | -48.76696 | 32118 ft | 471 kts | 189° |
| 2026-04-28 11:30 | -20.24241 | -48.77720 | 32117 ft | 471 kts | 189° |
| 2026-04-28 11:31 | -20.30766 | -48.78399 | 32109 ft | 472 kts | 189° |
| 2026-04-28 11:31 | -20.37296 | -48.79081 | 32110 ft | 472 kts | 189° |
| 2026-04-28 11:32 | -20.43830 | -48.79765 | 32113 ft | 472 kts | 189° |
| 2026-04-28 11:32 | -20.50379 | -48.80450 | 32123 ft | 472 kts | 189° |
| 2026-04-28 11:33 | -20.56914 | -48.81136 | 32119 ft | 472 kts | 189° |
| 2026-04-28 11:33 | -20.63457 | -48.81823 | 32121 ft | 472 kts | 189° |
| 2026-04-28 11:34 | -20.69986 | -48.82537 | 32105 ft | 471 kts | 192° |
| 2026-04-28 11:34 | -20.76463 | -48.83625 | 32124 ft | 470 kts | 193° |
| 2026-04-28 11:35 | -20.82934 | -48.84702 | 32101 ft | 471 kts | 192° |
| 2026-04-28 11:35 | -20.89364 | -48.85726 | 32108 ft | 471 kts | 192° |
| 2026-04-28 11:36 | -20.95846 | -48.86757 | 32098 ft | 471 kts | 193° |
| 2026-04-28 11:36 | -21.02328 | -48.87791 | 32100 ft | 471 kts | 193° |
| 2026-04-28 11:37 | -21.08808 | -48.88829 | 32101 ft | 471 kts | 193° |
| 2026-04-28 11:37 | -21.15273 | -48.89865 | 32097 ft | 470 kts | 193° |
| 2026-04-28 11:38 | -21.21758 | -48.90904 | 32099 ft | 470 kts | 193° |
| 2026-04-28 11:38 | -21.28235 | -48.91936 | 32099 ft | 470 kts | 193° |
| 2026-04-28 11:39 | -21.34697 | -48.92964 | 32101 ft | 470 kts | 193° |
| 2026-04-28 11:39 | -21.41166 | -48.93995 | 32113 ft | 470 kts | 193° |
| 2026-04-28 11:40 | -21.47629 | -48.95026 | 32102 ft | 470 kts | 193° |
| 2026-04-28 11:40 | -21.54054 | -48.96053 | 32099 ft | 470 kts | 193° |
| 2026-04-28 11:41 | -21.60527 | -48.97088 | 32102 ft | 470 kts | 193° |
| 2026-04-28 11:41 | -21.66989 | -48.98176 | 32095 ft | 468 kts | 196° |
| 2026-04-28 11:42 | -21.73312 | -48.99775 | 32120 ft | 467 kts | 198° |
| 2026-04-28 11:42 | -21.79645 | -49.01386 | 32100 ft | 467 kts | 197° |
| 2026-04-28 11:43 | -21.85982 | -49.02931 | 32101 ft | 467 kts | 197° |
| 2026-04-28 11:43 | -21.92338 | -49.04481 | 32109 ft | 468 kts | 197° |
| 2026-04-28 11:44 | -21.98692 | -49.06042 | 32102 ft | 469 kts | 197° |
| 2026-04-28 11:44 | -22.05050 | -49.07605 | 32098 ft | 469 kts | 198° |
| 2026-04-28 11:45 | -22.11208 | -49.09121 | 32094 ft | 468 kts | 198° |
| 2026-04-28 11:45 | -22.17546 | -49.10687 | 32101 ft | 467 kts | 198° |
| 2026-04-28 11:46 | -22.23838 | -49.12243 | 32102 ft | 466 kts | 198° |
| 2026-04-28 11:46 | -22.30161 | -49.13809 | 32096 ft | 466 kts | 198° |
| 2026-04-28 11:47 | -22.36489 | -49.15377 | 32102 ft | 466 kts | 198° |
| 2026-04-28 11:47 | -22.42784 | -49.17005 | 32097 ft | 464 kts | 200° |
| 2026-04-28 11:48 | -22.49011 | -49.18847 | 32098 ft | 464 kts | 200° |
| 2026-04-28 11:48 | -22.55254 | -49.20652 | 32105 ft | 465 kts | 199° |
| 2026-04-28 11:49 | -22.61745 | -49.21378 | 32118 ft | 473 kts | 185° |
| 2026-04-28 11:49 | -22.68336 | -49.21429 | 32098 ft | 474 kts | 185° |
| 2026-04-28 11:50 | -22.74936 | -49.21504 | 32104 ft | 474 kts | 186° |
| 2026-04-28 11:50 | -22.81495 | -49.21627 | 32096 ft | 474 kts | 186° |
| 2026-04-28 11:51 | -22.88080 | -49.21771 | 32102 ft | 474 kts | 186° |
| 2026-04-28 11:51 | -22.94674 | -49.21916 | 32100 ft | 474 kts | 186° |
| 2026-04-28 11:52 | -23.01265 | -49.22060 | 32107 ft | 474 kts | 186° |
| 2026-04-28 11:52 | -23.07861 | -49.22204 | 32104 ft | 474 kts | 186° |
| 2026-04-28 11:53 | -23.14458 | -49.22347 | 32112 ft | 474 kts | 186° |
| 2026-04-28 11:53 | -23.21057 | -49.22491 | 32107 ft | 474 kts | 186° |
| 2026-04-28 11:54 | -23.27663 | -49.22633 | 32103 ft | 475 kts | 186° |
| 2026-04-28 11:54 | -23.34272 | -49.22777 | 32122 ft | 474 kts | 186° |
| 2026-04-28 11:55 | -23.40830 | -49.22920 | 32114 ft | 474 kts | 186° |
| 2026-04-28 11:55 | -23.47438 | -49.23065 | 32131 ft | 475 kts | 186° |
| 2026-04-28 11:56 | -23.54056 | -49.23211 | 32135 ft | 475 kts | 186° |
| 2026-04-28 11:56 | -23.60680 | -49.23356 | 32123 ft | 476 kts | 186° |
| 2026-04-28 11:57 | -23.67298 | -49.23500 | 32136 ft | 475 kts | 187° |
| 2026-04-28 11:57 | -23.73868 | -49.23644 | 32140 ft | 475 kts | 187° |
| 2026-04-28 11:58 | -23.80491 | -49.23788 | 32135 ft | 476 kts | 187° |
| 2026-04-28 11:58 | -23.87115 | -49.23934 | 32143 ft | 476 kts | 187° |
| 2026-04-28 11:59 | -23.93733 | -49.24079 | 32152 ft | 475 kts | 187° |
| 2026-04-28 11:59 | -24.00342 | -49.24225 | 32146 ft | 475 kts | 187° |
| 2026-04-28 12:00 | -24.05835 | -49.24347 | 32142 ft | 475 kts | 187° |
| 2026-04-28 12:00 | -24.13558 | -49.24517 | 32153 ft | 475 kts | 187° |
| 2026-04-28 12:01 | -24.19054 | -49.24638 | 32155 ft | 475 kts | 187° |
| 2026-04-28 12:01 | -24.25664 | -49.24784 | 32159 ft | 476 kts | 187° |
| 2026-04-28 12:02 | -24.32291 | -49.24931 | 32164 ft | 476 kts | 187° |
| 2026-04-28 12:02 | -24.38918 | -49.25077 | 32166 ft | 476 kts | 187° |
| 2026-04-28 12:03 | -24.45508 | -49.25222 | 32166 ft | 476 kts | 187° |
| 2026-04-28 12:03 | -24.52179 | -49.25371 | 32171 ft | 477 kts | 187° |
| 2026-04-28 12:04 | -24.58800 | -49.25518 | 32176 ft | 476 kts | 188° |
| 2026-04-28 12:04 | -24.65387 | -49.25664 | 32173 ft | 476 kts | 188° |
| 2026-04-28 12:05 | -24.72019 | -49.25812 | 32173 ft | 476 kts | 188° |
| 2026-04-28 12:05 | -24.78643 | -49.25958 | 32176 ft | 475 kts | 188° |
| 2026-04-28 12:06 | -24.85265 | -49.26107 | 32174 ft | 476 kts | 188° |
| 2026-04-28 12:06 | -24.91889 | -49.26256 | 32185 ft | 476 kts | 188° |
| 2026-04-28 12:07 | -24.98527 | -49.26405 | 32185 ft | 477 kts | 188° |
| 2026-04-28 12:07 | -25.04044 | -49.26528 | 32189 ft | 477 kts | 188° |
| 2026-04-28 12:08 | -25.08219 | -49.26621 | 32175 ft | 478 kts | 188° |
| 2026-04-28 12:08 | -25.14814 | -49.26768 | 32181 ft | 476 kts | 188° |
| 2026-04-28 12:09 | -25.21441 | -49.26917 | 32192 ft | 476 kts | 188° |
| 2026-04-28 12:09 | -25.28069 | -49.27065 | 32180 ft | 476 kts | 188° |
| 2026-04-28 12:10 | -25.34685 | -49.27213 | 32183 ft | 475 kts | 189° |
| 2026-04-28 12:10 | -25.41306 | -49.27363 | 32181 ft | 475 kts | 189° |
| 2026-04-28 12:11 | -25.47918 | -49.27513 | 32188 ft | 475 kts | 189° |
| 2026-04-28 12:11 | -25.54526 | -49.27662 | 32185 ft | 475 kts | 189° |
| 2026-04-28 12:12 | -25.61144 | -49.27811 | 32186 ft | 476 kts | 189° |
| 2026-04-28 12:12 | -25.67681 | -49.27956 | 32173 ft | 468 kts | 189° |
| 2026-04-28 12:13 | -25.74206 | -49.27305 | 32192 ft | 478 kts | 176° |
| 2026-04-28 12:13 | -25.80744 | -49.25702 | 31734 ft | 483 kts | 174° |
| 2026-04-28 12:14 | -25.84000 | -49.24904 | 31332 ft | 477 kts | 175° |
| 2026-04-28 12:14 | -25.87239 | -49.24151 | 30900 ft | 472 kts | 175° |
| 2026-04-28 12:14 | -25.90447 | -49.23437 | 30463 ft | 468 kts | 176° |
| 2026-04-28 12:14 | -25.93629 | -49.22746 | 30037 ft | 464 kts | 176° |
| 2026-04-28 12:15 | -25.96783 | -49.22067 | 29592 ft | 460 kts | 176° |
| 2026-04-28 12:15 | -25.99915 | -49.21392 | 29144 ft | 456 kts | 176° |
| 2026-04-28 12:15 | -26.03015 | -49.20719 | 28702 ft | 453 kts | 176° |
| 2026-04-28 12:15 | -26.06094 | -49.20048 | 28249 ft | 450 kts | 177° |
| 2026-04-28 12:16 | -26.09155 | -49.19310 | 27788 ft | 452 kts | 173° |
| 2026-04-28 12:16 | -26.12168 | -49.18375 | 27377 ft | 447 kts | 171° |
| 2026-04-28 12:16 | -26.15141 | -49.17377 | 26947 ft | 445 kts | 170° |
| 2026-04-28 12:16 | -26.18080 | -49.16333 | 26518 ft | 442 kts | 169° |
| 2026-04-28 12:17 | -26.20996 | -49.15278 | 26081 ft | 442 kts | 169° |
| 2026-04-28 12:17 | -26.23917 | -49.14243 | 25657 ft | 439 kts | 170° |
| 2026-04-28 12:17 | -26.26832 | -49.13233 | 25241 ft | 438 kts | 170° |
| 2026-04-28 12:17 | -26.29741 | -49.12249 | 24824 ft | 436 kts | 171° |
| 2026-04-28 12:18 | -26.32638 | -49.11297 | 24372 ft | 434 kts | 171° |
| 2026-04-28 12:18 | -26.35518 | -49.10325 | 23951 ft | 430 kts | 170° |
| 2026-04-28 12:18 | -26.38367 | -49.09345 | 23526 ft | 427 kts | 171° |
| 2026-04-28 12:18 | -26.41194 | -49.08452 | 23098 ft | 420 kts | 172° |
| 2026-04-28 12:19 | -26.43941 | -49.07553 | 22719 ft | 415 kts | 170° |
| 2026-04-28 12:19 | -26.46701 | -49.06597 | 22323 ft | 413 kts | 170° |
| 2026-04-28 12:19 | -26.49434 | -49.05654 | 21897 ft | 408 kts | 170° |
| 2026-04-28 12:19 | -26.52147 | -49.04740 | 21481 ft | 408 kts | 170° |
| 2026-04-28 12:20 | -26.54855 | -49.03860 | 21104 ft | 400 kts | 172° |
| 2026-04-28 12:20 | -26.57539 | -49.03104 | 20705 ft | 395 kts | 173° |
| 2026-04-28 12:20 | -26.60203 | -49.02386 | 20322 ft | 393 kts | 173° |
| 2026-04-28 12:20 | -26.62863 | -49.01667 | 19910 ft | 392 kts | 173° |
| 2026-04-28 12:21 | -26.65495 | -49.00947 | 19522 ft | 387 kts | 172° |
| 2026-04-28 12:21 | -26.68095 | -49.00240 | 19119 ft | 382 kts | 172° |
| 2026-04-28 12:21 | -26.70663 | -48.99513 | 18722 ft | 379 kts | 172° |
| 2026-04-28 12:21 | -26.73204 | -48.98772 | 18335 ft | 375 kts | 171° |
| 2026-04-28 12:22 | -26.75727 | -48.98056 | 17967 ft | 374 kts | 173° |
| 2026-04-28 12:22 | -26.78262 | -48.97439 | 17558 ft | 370 kts | 174° |
| 2026-04-28 12:22 | -26.80769 | -48.96888 | 17174 ft | 366 kts | 175° |
| 2026-04-28 12:22 | -26.83229 | -48.96369 | 16799 ft | 364 kts | 175° |
| 2026-04-28 12:23 | -26.85736 | -48.95831 | 16418 ft | 360 kts | 174° |
| 2026-04-28 12:23 | -26.88193 | -48.95296 | 16028 ft | 359 kts | 174° |
| 2026-04-28 12:23 | -26.90596 | -48.94769 | 15653 ft | 356 kts | 174° |
| 2026-04-28 12:23 | -26.93045 | -48.94225 | 15286 ft | 354 kts | 174° |
| 2026-04-28 12:24 | -26.95412 | -48.93688 | 14916 ft | 350 kts | 174° |
| 2026-04-28 12:24 | -26.97794 | -48.93149 | 14539 ft | 348 kts | 174° |
| 2026-04-28 12:24 | -27.00159 | -48.92624 | 14180 ft | 346 kts | 174° |
| 2026-04-28 12:24 | -27.02518 | -48.92098 | 13779 ft | 347 kts | 174° |
| 2026-04-28 12:25 | -27.04899 | -48.91567 | 13392 ft | 350 kts | 174° |
| 2026-04-28 12:25 | -27.07297 | -48.91032 | 13003 ft | 353 kts | 173° |
| 2026-04-28 12:25 | -27.09705 | -48.90492 | 12596 ft | 353 kts | 173° |
| 2026-04-28 12:25 | -27.12112 | -48.89950 | 12186 ft | 352 kts | 173° |
| 2026-04-28 12:26 | -27.14514 | -48.89412 | 11770 ft | 351 kts | 173° |
| 2026-04-28 12:26 | -27.16899 | -48.88876 | 11362 ft | 350 kts | 173° |
| 2026-04-28 12:26 | -27.19283 | -48.88342 | 10947 ft | 348 kts | 172° |
| 2026-04-28 12:26 | -27.21618 | -48.87816 | 10517 ft | 336 kts | 172° |
| 2026-04-28 12:27 | -27.23874 | -48.87307 | 10137 ft | 325 kts | 171° |
| 2026-04-28 12:27 | -27.26031 | -48.86820 | 10072 ft | 305 kts | 171° |
| 2026-04-28 12:27 | -27.28123 | -48.86350 | 9469 ft | 306 kts | 171° |
| 2026-04-28 12:27 | -27.30174 | -48.85891 | 8962 ft | 305 kts | 170° |
| 2026-04-28 12:28 | -27.32246 | -48.85426 | 8601 ft | 301 kts | 170° |
| 2026-04-28 12:28 | -27.34286 | -48.84968 | 8221 ft | 295 kts | 170° |
| 2026-04-28 12:28 | -27.36235 | -48.84530 | 7895 ft | 294 kts | 169° |
| 2026-04-28 12:28 | -27.38253 | -48.84075 | 7563 ft | 297 kts | 169° |
| 2026-04-28 12:29 | -27.42315 | -48.83159 | 6836 ft | 299 kts | 169° |
| 2026-04-28 12:29 | -27.44353 | -48.82700 | 6496 ft | 298 kts | 169° |
| 2026-04-28 12:29 | -27.46361 | -48.82246 | 6133 ft | 289 kts | 169° |
| 2026-04-28 12:30 | -27.48306 | -48.81806 | 5792 ft | 281 kts | 169° |
| 2026-04-28 12:30 | -27.50190 | -48.81381 | 5569 ft | 267 kts | 169° |
| 2026-04-28 12:30 | -27.51912 | -48.80908 | 5408 ft | 246 kts | 158° |
| 2026-04-28 12:30 | -27.53218 | -48.79831 | 5229 ft | 223 kts | 127° |
| 2026-04-28 12:31 | -27.54041 | -48.78394 | 4726 ft | 219 kts | 118° |
| 2026-04-28 12:31 | -27.54777 | -48.76927 | 4380 ft | 212 kts | 120° |
| 2026-04-28 12:31 | -27.55540 | -48.75553 | 4101 ft | 201 kts | 122° |
| 2026-04-28 12:31 | -27.56278 | -48.74268 | 3850 ft | 188 kts | 122° |
| 2026-04-28 12:32 | -27.56952 | -48.73068 | 3641 ft | 172 kts | 121° |
| 2026-04-28 12:32 | -27.57559 | -48.71951 | 3397 ft | 159 kts | 120° |
| 2026-04-28 12:32 | -27.58125 | -48.70897 | 3210 ft | 158 kts | 120° |
| 2026-04-28 12:32 | -27.58684 | -48.69850 | 2994 ft | 153 kts | 120° |
| 2026-04-28 12:33 | -27.59224 | -48.68839 | 2781 ft | 148 kts | 121° |
| 2026-04-28 12:33 | -27.59756 | -48.67843 | 2601 ft | 150 kts | 122° |
| 2026-04-28 12:33 | -27.60290 | -48.66847 | 2399 ft | 150 kts | 122° |
| 2026-04-28 12:33 | -27.60826 | -48.65847 | 2191 ft | 148 kts | 123° |
| 2026-04-28 12:34 | -27.61360 | -48.64849 | 1997 ft | 149 kts | 123° |
| 2026-04-28 12:34 | -27.61898 | -48.63846 | 1808 ft | 150 kts | 123° |
| 2026-04-28 12:34 | -27.62437 | -48.62838 | 1605 ft | 149 kts | 122° |
| 2026-04-28 12:34 | -27.62969 | -48.61843 | 1403 ft | 148 kts | 123° |
| 2026-04-28 12:35 | -27.63506 | -48.60844 | 1209 ft | 149 kts | 123° |
| 2026-04-28 12:35 | -27.64042 | -48.59842 | 1010 ft | 149 kts | 123° |
| 2026-04-28 12:35 | -27.64576 | -48.58844 | 810 ft | 148 kts | 123° |
| 2026-04-28 12:35 | -27.65108 | -48.57849 | 629 ft | 148 kts | 123° |
| 2026-04-28 12:36 | -27.65631 | -48.56860 | 460 ft | 147 kts | 123° |
| 2026-04-28 12:36 | -27.66170 | -48.55857 | 212 ft | 151 kts | 122° |
| 2026-04-28 12:36 | -27.66712 | -48.54856 | 61 ft | 147 kts | 123° |
| 2026-04-28 12:36 | -27.67189 | -48.53972 | 24 ft | 108 kts | 122° |
| 2026-04-28 12:37 | -27.67446 | -48.53497 | 24 ft | 37 kts | 124° |
| 2026-04-28 12:37 | -27.67577 | -48.53262 | 26 ft | 33 kts | 121° |
| 2026-04-28 12:37 | -27.67685 | -48.53094 | 26 ft | 19 kts | 160° |
| 2026-04-28 12:37 | -27.67793 | -48.53152 | 26 ft | 17 kts | 226° |
| 2026-04-28 12:38 | -27.67771 | -48.53272 | 26 ft | 17 kts | 304° |
| 2026-04-28 12:38 | -27.67711 | -48.53379 | 26 ft | 16 kts | 302° |
| 2026-04-28 12:38 | -27.67653 | -48.53482 | 26 ft | 15 kts | 303° |
| 2026-04-28 12:38 | -27.67597 | -48.53582 | 26 ft | 15 kts | 302° |
| 2026-04-28 12:39 | -27.67545 | -48.53675 | 26 ft | 13 kts | 302° |
| 2026-04-28 12:39 | -27.67502 | -48.53752 | 26 ft | 11 kts | 302° |
| 2026-04-28 12:39 | -27.67472 | -48.53806 | 26 ft | 2 kts | 302° |
| 2026-04-28 12:39 | -27.67463 | -48.53821 | 26 ft | 2 kts | 302° |
| 2026-04-28 12:40 | -27.67455 | -48.53836 | 26 ft | 2 kts | 302° |
| 2026-04-28 12:40 | -27.67450 | -48.53845 | 26 ft | 0 kts | 302° |
| 2026-04-28 12:40 | -27.67440 | -48.53863 | 26 ft | 9 kts | 301° |
| 2026-04-28 12:40 | -27.67402 | -48.53937 | 26 ft | 12 kts | 301° |
| 2026-04-28 12:41 | -27.67345 | -48.54040 | 26 ft | 19 kts | 301° |
| 2026-04-28 12:41 | -27.67274 | -48.54172 | 26 ft | 20 kts | 301° |
| 2026-04-28 12:41 | -27.67201 | -48.54307 | 26 ft | 20 kts | 301° |
| 2026-04-28 12:41 | -27.67130 | -48.54440 | 26 ft | 20 kts | 302° |
| 2026-04-28 12:42 | -27.67076 | -48.54555 | 26 ft | 10 kts | 276° |
| 2026-04-28 12:42 | -27.67113 | -48.54611 | 26 ft | 10 kts | 207° |
| 2026-04-28 12:42 | -27.67188 | -48.54601 | 26 ft | 10 kts | 144° |
| 2026-04-28 12:42 | -27.67232 | -48.54537 | 26 ft | 9 kts | 121° |
| 2026-04-28 12:43 | -27.67260 | -48.54523 | 26 ft | 0 kts | 204° |
| 2026-04-28 12:43 | -27.67270 | -48.54530 | 26 ft | 3 kts | 209° |
| 2026-04-28 12:43 | -27.67287 | -48.54541 | 26 ft | 2 kts | 213° |
| 2026-04-28 12:43 | -27.67291 | -48.54545 | 26 ft | 0 kts | 214° |